UAE801 OEJN-OMDB
Flight info
| Callsign | UAE801 |
|---|---|
| Flight time | N/A |
| Altitude | 37000 |
| Route | EGREP T532 KODIS Y214 RAPMA DCT KUVSO DCT RIBOT M550 GOLGU M318 ATUDO/N0514F350 M318 RURAL Q317 LORID |
| Aircraft | B77W/H-SDE1E2E3FGHIJ2J3J4J5M1RWXY/LB1D1 |
Departure
| Time | 2026-05-05 17:02 |
|---|---|
| Airport | King Abdulaziz International Airport (OEJN) |
Arrival
| Time | N/A |
|---|---|
| Airport | Dubai International Airport (OMDB) |
| Time | Latitude | Longitude | Altitude | Speed | Heading |
|---|---|---|---|---|---|
| 2026-05-05 16:28 | 21.66939 | 39.16820 | 46 ft | 0 kts | 4° |
| 2026-05-05 16:49 | 21.66934 | 39.16820 | 46 ft | 2 kts | 4° |
| 2026-05-05 16:50 | 21.66918 | 39.16818 | 43 ft | 2 kts | 5° |
| 2026-05-05 16:50 | 21.66901 | 39.16816 | 42 ft | 2 kts | 6° |
| 2026-05-05 16:50 | 21.66885 | 39.16814 | 40 ft | 2 kts | 31° |
| 2026-05-05 16:50 | 21.66873 | 39.16802 | 39 ft | 2 kts | 64° |
| 2026-05-05 16:51 | 21.66868 | 39.16785 | 42 ft | 2 kts | 91° |
| 2026-05-05 16:51 | 21.66869 | 39.16775 | 43 ft | 1 kts | 103° |
| 2026-05-05 16:58 | 21.66855 | 39.16810 | 45 ft | 19 kts | 115° |
| 2026-05-05 16:59 | 21.66707 | 39.16929 | 46 ft | 28 kts | 161° |
| 2026-05-05 16:59 | 21.66518 | 39.16996 | 47 ft | 28 kts | 162° |
| 2026-05-05 16:59 | 21.66414 | 39.17020 | 47 ft | 28 kts | 176° |
| 2026-05-05 16:59 | 21.66299 | 39.16961 | 45 ft | 12 kts | 250° |
| 2026-05-05 17:00 | 21.66239 | 39.16791 | 43 ft | 29 kts | 251° |
| 2026-05-05 17:00 | 21.66170 | 39.16588 | 41 ft | 29 kts | 253° |
| 2026-05-05 17:00 | 21.66162 | 39.16477 | 39 ft | 8 kts | 315° |
| 2026-05-05 17:00 | 21.66217 | 39.16448 | 39 ft | 0 kts | 342° |
| 2026-05-05 17:01 | 21.66248 | 39.16436 | 39 ft | 16 kts | 340° |
| 2026-05-05 17:02 | 21.66610 | 39.16294 | 42 ft | 111 kts | 340° |
| 2026-05-05 17:02 | 21.67666 | 39.15887 | 364 ft | 192 kts | 341° |
| 2026-05-05 17:02 | 21.69029 | 39.15404 | 1481 ft | 220 kts | 343° |
| 2026-05-05 17:02 | 21.70611 | 39.15279 | 2768 ft | 240 kts | 11° |
| 2026-05-05 17:03 | 21.72081 | 39.16188 | 3788 ft | 254 kts | 41° |
| 2026-05-05 17:03 | 21.73243 | 39.17680 | 4539 ft | 266 kts | 50° |
| 2026-05-05 17:03 | 21.74404 | 39.19287 | 5311 ft | 277 kts | 48° |
| 2026-05-05 17:03 | 21.75662 | 39.20883 | 6203 ft | 283 kts | 45° |
| 2026-05-05 17:04 | 21.77002 | 39.22427 | 7079 ft | 287 kts | 43° |
| 2026-05-05 17:04 | 21.78438 | 39.23948 | 7965 ft | 293 kts | 41° |
| 2026-05-05 17:04 | 21.79947 | 39.25449 | 8886 ft | 299 kts | 40° |
| 2026-05-05 17:04 | 21.81528 | 39.26949 | 9767 ft | 305 kts | 40° |
| 2026-05-05 17:05 | 21.83156 | 39.28444 | 10585 ft | 312 kts | 39° |
| 2026-05-05 17:05 | 21.84874 | 39.29987 | 11039 ft | 335 kts | 39° |
| 2026-05-05 17:05 | 21.86759 | 39.31653 | 11233 ft | 366 kts | 39° |
| 2026-05-05 17:05 | 21.88811 | 39.33450 | 11474 ft | 391 kts | 39° |
| 2026-05-05 17:06 | 21.90952 | 39.35312 | 12278 ft | 399 kts | 39° |
| 2026-05-05 17:06 | 21.91568 | 39.35846 | 12536 ft | 400 kts | 39° |
| 2026-05-05 17:06 | 21.93730 | 39.37717 | 13369 ft | 408 kts | 39° |
| 2026-05-05 17:07 | 21.94764 | 39.38611 | 13717 ft | 412 kts | 39° |
| 2026-05-05 17:07 | 21.97015 | 39.40557 | 14456 ft | 418 kts | 39° |
| 2026-05-05 17:07 | 21.99196 | 39.42440 | 15249 ft | 422 kts | 38° |
| 2026-05-05 17:07 | 22.01495 | 39.44427 | 16125 ft | 425 kts | 38° |
| 2026-05-05 17:08 | 22.03809 | 39.46427 | 16968 ft | 429 kts | 38° |
| 2026-05-05 17:08 | 22.06120 | 39.48425 | 17767 ft | 434 kts | 38° |
| 2026-05-05 17:08 | 22.08490 | 39.50475 | 18524 ft | 439 kts | 38° |
| 2026-05-05 17:08 | 22.10877 | 39.52542 | 19198 ft | 444 kts | 38° |
| 2026-05-05 17:09 | 22.13305 | 39.54644 | 19862 ft | 449 kts | 38° |
| 2026-05-05 17:09 | 22.15755 | 39.56767 | 20526 ft | 454 kts | 38° |
| 2026-05-05 17:09 | 22.18236 | 39.58917 | 21174 ft | 460 kts | 38° |
| 2026-05-05 17:09 | 22.20740 | 39.61090 | 21832 ft | 465 kts | 38° |
| 2026-05-05 17:10 | 22.23276 | 39.63290 | 22469 ft | 470 kts | 38° |
| 2026-05-05 17:10 | 22.25796 | 39.65479 | 23090 ft | 475 kts | 38° |
| 2026-05-05 17:10 | 22.28381 | 39.67724 | 23649 ft | 480 kts | 37° |
| 2026-05-05 17:10 | 22.30997 | 39.69998 | 24099 ft | 486 kts | 37° |
| 2026-05-05 17:11 | 22.33647 | 39.72302 | 24570 ft | 491 kts | 37° |
| 2026-05-05 17:11 | 22.34488 | 39.73033 | 24709 ft | 493 kts | 37° |
| 2026-05-05 17:11 | 22.34492 | 39.73037 | 24711 ft | 493 kts | 37° |
| 2026-05-05 17:12 | 22.37164 | 39.75362 | 25184 ft | 497 kts | 37° |
| 2026-05-05 17:12 | 22.39878 | 39.77725 | 25632 ft | 503 kts | 37° |
| 2026-05-05 17:12 | 22.42576 | 39.80077 | 26077 ft | 508 kts | 37° |
| 2026-05-05 17:12 | 22.45340 | 39.82486 | 26516 ft | 512 kts | 37° |
| 2026-05-05 17:13 | 22.48123 | 39.84937 | 26916 ft | 518 kts | 38° |
| 2026-05-05 17:13 | 22.50864 | 39.87485 | 27318 ft | 523 kts | 39° |
| 2026-05-05 17:13 | 22.53599 | 39.90115 | 27737 ft | 528 kts | 39° |
| 2026-05-05 17:13 | 22.56337 | 39.92779 | 28156 ft | 532 kts | 39° |
| 2026-05-05 17:14 | 22.59096 | 39.95462 | 28555 ft | 535 kts | 39° |
| 2026-05-05 17:14 | 22.61887 | 39.98163 | 28927 ft | 540 kts | 39° |
| 2026-05-05 17:14 | 22.64660 | 40.00831 | 29256 ft | 544 kts | 39° |
| 2026-05-05 17:14 | 22.67506 | 40.03558 | 29578 ft | 548 kts | 39° |
| 2026-05-05 17:15 | 22.70369 | 40.06296 | 29895 ft | 551 kts | 38° |
| 2026-05-05 17:15 | 22.73253 | 40.09052 | 30198 ft | 555 kts | 38° |
| 2026-05-05 17:15 | 22.76157 | 40.11831 | 30441 ft | 558 kts | 38° |
| 2026-05-05 17:15 | 22.79068 | 40.14620 | 30682 ft | 560 kts | 38° |
| 2026-05-05 17:16 | 22.81987 | 40.17420 | 30925 ft | 562 kts | 38° |
| 2026-05-05 17:16 | 22.84922 | 40.20237 | 31138 ft | 565 kts | 38° |
| 2026-05-05 17:16 | 22.87830 | 40.23030 | 31395 ft | 566 kts | 38° |
| 2026-05-05 17:16 | 22.90774 | 40.25861 | 31706 ft | 566 kts | 38° |
| 2026-05-05 17:17 | 22.93711 | 40.28687 | 32015 ft | 565 kts | 38° |
| 2026-05-05 17:17 | 22.96653 | 40.31518 | 32318 ft | 565 kts | 38° |
| 2026-05-05 17:17 | 22.99593 | 40.34350 | 32603 ft | 566 kts | 38° |
| 2026-05-05 17:17 | 23.02543 | 40.37191 | 32890 ft | 566 kts | 38° |
| 2026-05-05 17:18 | 23.05482 | 40.40024 | 33217 ft | 566 kts | 38° |
| 2026-05-05 17:18 | 23.08424 | 40.42863 | 33521 ft | 566 kts | 38° |
| 2026-05-05 17:18 | 23.11364 | 40.45701 | 33853 ft | 566 kts | 38° |
| 2026-05-05 17:18 | 23.12100 | 40.46411 | 33927 ft | 566 kts | 38° |
| 2026-05-05 17:19 | 23.14288 | 40.48525 | 34173 ft | 565 kts | 38° |
| 2026-05-05 17:20 | 23.17224 | 40.51364 | 34480 ft | 564 kts | 38° |
| 2026-05-05 17:20 | 23.20155 | 40.54198 | 34809 ft | 562 kts | 38° |
| 2026-05-05 17:20 | 23.23057 | 40.57035 | 35111 ft | 563 kts | 41° |
| 2026-05-05 17:20 | 23.25675 | 40.60136 | 35354 ft | 566 kts | 50° |
| 2026-05-05 17:21 | 23.27959 | 40.63630 | 35644 ft | 567 kts | 57° |
| 2026-05-05 17:21 | 23.29894 | 40.67355 | 35937 ft | 567 kts | 64° |
| 2026-05-05 17:21 | 23.31401 | 40.71311 | 36224 ft | 566 kts | 70° |
| 2026-05-05 17:22 | 23.34093 | 40.79361 | 36760 ft | 565 kts | 71° |
| 2026-05-05 17:22 | 23.34235 | 40.79792 | 36790 ft | 565 kts | 71° |
| 2026-05-05 17:23 | 23.35395 | 40.83291 | 36921 ft | 568 kts | 70° |
| 2026-05-05 17:23 | 23.38129 | 40.91366 | 36982 ft | 569 kts | 70° |
| 2026-05-05 17:24 | 23.39723 | 40.95983 | 36980 ft | 566 kts | 70° |
| 2026-05-05 17:24 | 23.41459 | 41.00984 | 36983 ft | 563 kts | 70° |
| 2026-05-05 17:25 | 23.42125 | 41.02900 | 36981 ft | 562 kts | 70° |
| 2026-05-05 17:25 | 23.44423 | 41.09532 | 36986 ft | 561 kts | 70° |
| 2026-05-05 17:26 | 23.47165 | 41.17479 | 36987 ft | 560 kts | 70° |
| 2026-05-05 17:26 | 23.49902 | 41.25441 | 36983 ft | 561 kts | 70° |
| 2026-05-05 17:27 | 23.52620 | 41.33360 | 36986 ft | 562 kts | 70° |
| 2026-05-05 17:27 | 23.55359 | 41.41355 | 36983 ft | 564 kts | 70° |
| 2026-05-05 17:28 | 23.58100 | 41.49370 | 36971 ft | 565 kts | 70° |
| 2026-05-05 17:28 | 23.60843 | 41.57407 | 36970 ft | 566 kts | 70° |
| 2026-05-05 17:29 | 23.63571 | 41.65415 | 36968 ft | 568 kts | 70° |
| 2026-05-05 17:29 | 23.66322 | 41.73504 | 36969 ft | 570 kts | 70° |
| 2026-05-05 17:30 | 23.69009 | 41.81656 | 36963 ft | 572 kts | 72° |
| 2026-05-05 17:30 | 23.71552 | 41.89834 | 36962 ft | 573 kts | 72° |
| 2026-05-05 17:31 | 23.74137 | 41.98076 | 36960 ft | 574 kts | 72° |
| 2026-05-05 17:31 | 23.76846 | 42.06280 | 36951 ft | 574 kts | 70° |
| 2026-05-05 17:32 | 23.79672 | 42.14428 | 36953 ft | 574 kts | 70° |
| 2026-05-05 17:32 | 23.82484 | 42.22575 | 36947 ft | 573 kts | 70° |
| 2026-05-05 17:33 | 23.85240 | 42.30665 | 36951 ft | 572 kts | 70° |
| 2026-05-05 17:33 | 23.87996 | 42.38804 | 36950 ft | 571 kts | 70° |
| 2026-05-05 17:34 | 23.90752 | 42.46953 | 36947 ft | 572 kts | 71° |
| 2026-05-05 17:34 | 23.93511 | 42.55118 | 36952 ft | 573 kts | 71° |
| 2026-05-05 17:35 | 23.96270 | 42.63298 | 36952 ft | 574 kts | 71° |
| 2026-05-05 17:35 | 23.99014 | 42.71452 | 36954 ft | 576 kts | 71° |
| 2026-05-05 17:36 | 24.01777 | 42.79678 | 36945 ft | 576 kts | 71° |
| 2026-05-05 17:36 | 24.03514 | 42.88138 | 36951 ft | 568 kts | 91° |
| 2026-05-05 17:37 | 24.02868 | 42.96646 | 36948 ft | 555 kts | 110° |
| 2026-05-05 17:37 | 24.00643 | 43.04611 | 36953 ft | 552 kts | 114° |
| 2026-05-05 17:38 | 23.98338 | 43.12617 | 36957 ft | 553 kts | 113° |
| 2026-05-05 17:38 | 23.96107 | 43.20679 | 36963 ft | 554 kts | 112° |
| 2026-05-05 17:39 | 23.93921 | 43.28742 | 36961 ft | 554 kts | 112° |
| 2026-05-05 17:39 | 23.91747 | 43.36752 | 36963 ft | 553 kts | 112° |
| 2026-05-05 17:40 | 23.89546 | 43.44808 | 36959 ft | 553 kts | 112° |
| 2026-05-05 17:40 | 23.87340 | 43.52852 | 36960 ft | 552 kts | 112° |
| 2026-05-05 17:41 | 23.85137 | 43.60871 | 36941 ft | 551 kts | 112° |
| 2026-05-05 17:41 | 23.82949 | 43.68819 | 36950 ft | 550 kts | 112° |
| 2026-05-05 17:42 | 23.80745 | 43.76809 | 36943 ft | 549 kts | 112° |
| 2026-05-05 17:42 | 23.78539 | 43.84798 | 36935 ft | 549 kts | 111° |
| 2026-05-05 17:43 | 23.76971 | 43.92996 | 36928 ft | 557 kts | 100° |
| 2026-05-05 17:43 | 23.76367 | 44.01390 | 36931 ft | 558 kts | 98° |
| 2026-05-05 17:44 | 23.75823 | 44.09829 | 36920 ft | 558 kts | 98° |
| 2026-05-05 17:44 | 23.75220 | 44.18272 | 36924 ft | 557 kts | 98° |
| 2026-05-05 17:45 | 23.74578 | 44.26699 | 36923 ft | 557 kts | 99° |
| 2026-05-05 17:45 | 23.73932 | 44.35077 | 36928 ft | 557 kts | 99° |
| 2026-05-05 17:46 | 23.73283 | 44.43507 | 36929 ft | 557 kts | 99° |
| 2026-05-05 17:46 | 23.72632 | 44.51930 | 36927 ft | 557 kts | 99° |
| 2026-05-05 17:47 | 23.71978 | 44.60342 | 36929 ft | 557 kts | 99° |
| 2026-05-05 17:47 | 23.71322 | 44.68708 | 36922 ft | 556 kts | 99° |
| 2026-05-05 17:48 | 23.70659 | 44.77102 | 36919 ft | 555 kts | 99° |
| 2026-05-05 17:48 | 23.69993 | 44.85486 | 36916 ft | 554 kts | 99° |
| 2026-05-05 17:49 | 23.69322 | 44.93844 | 36916 ft | 553 kts | 99° |
| 2026-05-05 17:49 | 23.68648 | 45.02162 | 36909 ft | 553 kts | 99° |
| 2026-05-05 17:50 | 23.67968 | 45.10511 | 36910 ft | 553 kts | 99° |
| 2026-05-05 17:50 | 23.67284 | 45.18859 | 36893 ft | 553 kts | 99° |
| 2026-05-05 17:51 | 23.66597 | 45.27204 | 36896 ft | 553 kts | 99° |
| 2026-05-05 17:51 | 23.65907 | 45.35554 | 36887 ft | 552 kts | 99° |
| 2026-05-05 17:52 | 23.65214 | 45.43894 | 36883 ft | 552 kts | 99° |
| 2026-05-05 17:52 | 23.64520 | 45.52177 | 36869 ft | 552 kts | 99° |
| 2026-05-05 17:53 | 23.63819 | 45.60518 | 36873 ft | 552 kts | 99° |
| 2026-05-05 17:53 | 23.63113 | 45.68849 | 36867 ft | 551 kts | 99° |
| 2026-05-05 17:54 | 23.62404 | 45.77171 | 36864 ft | 551 kts | 99° |
| 2026-05-05 17:54 | 23.61697 | 45.85427 | 36864 ft | 551 kts | 99° |
| 2026-05-05 17:55 | 23.60980 | 45.93744 | 36865 ft | 551 kts | 99° |
| 2026-05-05 17:55 | 23.60260 | 46.02055 | 36864 ft | 551 kts | 99° |
| 2026-05-05 17:56 | 23.59534 | 46.10369 | 36866 ft | 551 kts | 99° |
| 2026-05-05 17:56 | 23.58810 | 46.18627 | 36878 ft | 551 kts | 99° |
| 2026-05-05 17:57 | 23.58075 | 46.26946 | 36871 ft | 551 kts | 99° |
| 2026-05-05 17:57 | 23.57338 | 46.35248 | 36869 ft | 551 kts | 99° |
| 2026-05-05 17:58 | 23.56594 | 46.43556 | 36877 ft | 550 kts | 99° |
| 2026-05-05 17:58 | 23.55851 | 46.51842 | 36876 ft | 549 kts | 99° |
| 2026-05-05 17:59 | 23.55101 | 46.60055 | 36861 ft | 548 kts | 99° |
| 2026-05-05 17:59 | 23.54337 | 46.68317 | 36860 ft | 548 kts | 99° |
| 2026-05-05 18:00 | 23.53569 | 46.76578 | 36850 ft | 548 kts | 99° |
| 2026-05-05 18:00 | 23.52798 | 46.84835 | 36845 ft | 548 kts | 99° |
| 2026-05-05 18:01 | 23.52030 | 46.93024 | 36844 ft | 547 kts | 99° |
| 2026-05-05 18:01 | 23.51255 | 47.01244 | 36830 ft | 547 kts | 99° |
| 2026-05-05 18:02 | 23.50473 | 47.09487 | 36837 ft | 547 kts | 99° |
| 2026-05-05 18:02 | 23.49688 | 47.17722 | 36830 ft | 547 kts | 99° |
| 2026-05-05 18:03 | 23.48902 | 47.25909 | 36836 ft | 547 kts | 99° |
| 2026-05-05 18:03 | 23.48107 | 47.34145 | 36832 ft | 546 kts | 99° |
| 2026-05-05 18:04 | 23.47311 | 47.42360 | 36824 ft | 546 kts | 99° |
| 2026-05-05 18:04 | 23.46510 | 47.50580 | 36821 ft | 545 kts | 99° |
| 2026-05-05 18:05 | 23.45714 | 47.58729 | 36815 ft | 545 kts | 99° |
| 2026-05-05 18:05 | 23.44916 | 47.66922 | 36812 ft | 544 kts | 99° |
| 2026-05-05 18:06 | 23.44113 | 47.75113 | 36816 ft | 543 kts | 99° |
| 2026-05-05 18:06 | 23.43307 | 47.83290 | 36809 ft | 543 kts | 99° |
| 2026-05-05 18:07 | 23.42498 | 47.91456 | 36807 ft | 542 kts | 99° |
| 2026-05-05 18:07 | 23.41691 | 47.99550 | 36797 ft | 542 kts | 99° |
| 2026-05-05 18:08 | 23.40872 | 48.07720 | 36798 ft | 541 kts | 99° |
| 2026-05-05 18:08 | 23.40052 | 48.15859 | 36790 ft | 541 kts | 99° |
| 2026-05-05 18:09 | 23.39228 | 48.24000 | 36787 ft | 541 kts | 99° |
| 2026-05-05 18:09 | 23.38402 | 48.32126 | 36787 ft | 540 kts | 99° |
| 2026-05-05 18:10 | 23.37871 | 48.40242 | 36791 ft | 541 kts | 95° |
| 2026-05-05 18:10 | 23.37586 | 48.48434 | 36784 ft | 541 kts | 94° |
| 2026-05-05 18:11 | 23.37300 | 48.56615 | 36783 ft | 541 kts | 95° |
| 2026-05-05 18:11 | 23.36975 | 48.64786 | 36780 ft | 541 kts | 95° |
| 2026-05-05 18:12 | 23.36635 | 48.72899 | 36779 ft | 540 kts | 95° |
| 2026-05-05 18:12 | 23.36291 | 48.81069 | 36773 ft | 540 kts | 95° |
| 2026-05-05 18:13 | 23.35945 | 48.89229 | 36775 ft | 540 kts | 95° |
| 2026-05-05 18:13 | 23.35596 | 48.97384 | 36777 ft | 539 kts | 95° |
| 2026-05-05 18:14 | 23.35245 | 49.05479 | 36769 ft | 539 kts | 95° |
| 2026-05-05 18:14 | 23.34857 | 49.13619 | 36771 ft | 538 kts | 95° |
| 2026-05-05 18:15 | 23.34427 | 49.21739 | 36771 ft | 538 kts | 95° |
| 2026-05-05 18:15 | 23.33992 | 49.29866 | 36772 ft | 538 kts | 95° |
| 2026-05-05 18:16 | 23.33565 | 49.37921 | 36770 ft | 538 kts | 95° |
| 2026-05-05 18:16 | 23.33132 | 49.46067 | 36770 ft | 538 kts | 95° |
| 2026-05-05 18:17 | 23.32696 | 49.54189 | 36780 ft | 538 kts | 95° |
| 2026-05-05 18:17 | 23.32256 | 49.62319 | 36777 ft | 538 kts | 95° |
| 2026-05-05 18:18 | 23.31813 | 49.70402 | 36784 ft | 539 kts | 95° |
| 2026-05-05 18:18 | 23.31364 | 49.78528 | 36780 ft | 539 kts | 95° |
| 2026-05-05 18:19 | 23.30910 | 49.86664 | 36780 ft | 538 kts | 95° |
| 2026-05-05 18:19 | 23.30453 | 49.94774 | 36780 ft | 537 kts | 95° |
| 2026-05-05 18:20 | 23.29995 | 50.02828 | 36780 ft | 536 kts | 95° |
| 2026-05-05 18:20 | 23.29532 | 50.10912 | 36780 ft | 535 kts | 95° |